Time;durP1;ratioP1;P1;durP2;ratioP2;P2;SDS_P1;SDS_P2;PMS_P1;PMS_P2;Temp;Humidity;BMP_temperature;BMP_pressure;BME280_temperature;BME280_humidity;BME280_pressure;Samples;Min_cycle;Max_cycle;Signal;HPM_P1;HPM_P2
2023/09/12 00:02:05;;;;;;;41.38;15.75;;;18.70;99.90;;;;;;5044827;28;20033;-70
2023/09/12 00:04:31;;;;;;;44.35;17.02;;;18.80;99.90;;;;;;5044149;28;20212;-71
2023/09/12 00:06:56;;;;;;;52.25;18.50;;;18.70;99.90;;;;;;5042900;28;20033;-72
2023/09/12 00:09:22;;;;;;;44.40;17.33;;;18.70;99.90;;;;;;5024838;28;20041;-70
2023/09/12 00:11:48;;;;;;;42.17;15.88;;;18.70;99.90;;;;;;5041203;28;20037;-72
2023/09/12 00:14:17;;;;;;;39.88;16.08;;;18.70;99.90;;;;;;5043544;28;20041;-71
2023/09/12 00:16:43;;;;;;;42.08;16.85;;;18.70;99.90;;;;;;5039706;28;20036;-72
2023/09/12 00:19:09;;;;;;;49.92;17.05;;;18.60;99.90;;;;;;5042299;28;20037;-69
2023/09/12 00:21:34;;;;;;;44.78;16.73;;;18.60;99.90;;;;;;5022723;28;20040;-70
2023/09/12 00:24:00;;;;;;;43.30;17.83;;;18.60;99.90;;;;;;5027554;28;20109;-69
2023/09/12 00:26:25;;;;;;;44.05;17.67;;;18.60;99.90;;;;;;5025179;28;20069;-70
2023/09/12 00:28:51;;;;;;;42.05;17.50;;;18.60;99.90;;;;;;5041192;28;20029;-70
2023/09/12 00:31:16;;;;;;;41.67;19.02;;;18.60;99.90;;;;;;5042440;28;20557;-71
2023/09/12 00:33:42;;;;;;;46.22;18.23;;;18.50;99.90;;;;;;5020234;28;20378;-71
2023/09/12 00:36:07;;;;;;;55.55;19.02;;;18.50;99.90;;;;;;5041964;28;20166;-70
2023/09/12 00:38:33;;;;;;;50.92;18.90;;;18.50;99.90;;;;;;5038152;28;20041;-74
2023/09/12 00:40:58;;;;;;;43.53;17.13;;;18.50;99.90;;;;;;5040135;28;20115;-70
2023/09/12 00:43:24;;;;;;;55.05;19.40;;;18.40;99.90;;;;;;5037627;28;20056;-70
2023/09/12 00:45:50;;;;;;;52.30;19.73;;;18.40;99.90;;;;;;5025883;28;20508;-71
2023/09/12 00:48:18;;;;;;;49.30;18.90;;;18.40;99.90;;;;;;5040101;28;20037;-72
2023/09/12 00:50:45;;;;;;;42.10;18.25;;;18.40;99.90;;;;;;5026386;28;20492;-71
2023/09/12 00:53:10;;;;;;;49.15;18.95;;;18.30;99.90;;;;;;5030195;28;20052;-69
2023/09/12 00:55:39;;;;;;;55.17;19.63;;;18.30;99.90;;;;;;5041058;28;20060;-71
2023/09/12 00:58:05;;;;;;;60.22;19.35;;;18.30;99.90;;;;;;5020233;28;20527;-69
2023/09/12 01:00:30;;;;;;;46.60;19.00;;;18.30;99.90;;;;;;5038818;28;20117;-70
2023/09/12 01:02:58;;;;;;;44.55;18.48;;;18.20;99.90;;;;;;5038462;28;20033;-71
2023/09/12 01:05:24;;;;;;;45.88;18.15;;;18.30;99.90;;;;;;5024653;28;20021;-71
2023/09/12 01:07:49;;;;;;;45.70;17.73;;;18.20;99.90;;;;;;5033834;28;20539;-71
2023/09/12 01:10:15;;;;;;;44.78;17.20;;;18.20;99.90;;;;;;5021778;28;20041;-70
2023/09/12 01:12:41;;;;;;;50.33;18.27;;;18.20;99.90;;;;;;5024603;28;20370;-71
2023/09/12 01:15:13;;;;;;;52.50;18.35;;;18.20;99.90;;;;;;5038907;28;20075;-71
2023/09/12 01:17:40;;;;;;;51.20;18.92;;;18.20;99.90;;;;;;5033440;28;20033;-72
2023/09/12 01:20:11;;;;;;;39.58;16.38;;;18.20;99.90;;;;;;5017918;28;20037;-71
2023/09/12 01:23:04;;;;;;;43.53;17.15;;;18.20;99.90;;;;;;5016869;28;20045;-70
2023/09/12 01:25:38;;;;;;;42.10;17.42;;;18.10;99.90;;;;;;5042685;28;20045;-70
2023/09/12 01:28:07;;;;;;;44.10;17.58;;;18.10;99.90;;;;;;5031768;28;20112;-71
2023/09/12 01:30:35;;;;;;;47.58;17.10;;;18.10;99.90;;;;;;5010125;28;20029;-73
2023/09/12 01:33:01;;;;;;;42.97;17.58;;;18.20;99.90;;;;;;5017149;28;20080;-70
2023/09/12 01:35:27;;;;;;;56.22;18.27;;;18.10;99.90;;;;;;5037186;28;20029;-70
2023/09/12 01:37:53;;;;;;;52.22;16.92;;;18.20;99.90;;;;;;5037395;28;20064;-70
2023/09/12 01:40:29;;;;;;;48.00;16.70;;;18.10;99.90;;;;;;5023892;28;20095;-72
2023/09/12 01:42:56;;;;;;;38.75;14.88;;;18.20;99.90;;;;;;5019972;28;20501;-70
2023/09/12 01:45:22;;;;;;;35.80;13.52;;;18.20;99.90;;;;;;5036374;28;20029;-72
2023/09/12 01:47:49;;;;;;;39.38;12.32;;;18.10;99.90;;;;;;5036051;28;20032;-69
2023/09/12 01:50:16;;;;;;;35.75;12.95;;;18.10;99.90;;;;;;5047044;28;20150;-69
2023/09/12 01:52:42;;;;;;;27.50;12.05;;;18.10;99.90;;;;;;5044239;28;20029;-72
2023/09/12 01:55:10;;;;;;;26.92;11.48;;;18.10;99.90;;;;;;5046808;28;20039;-70
2023/09/12 01:57:37;;;;;;;33.08;12.85;;;18.10;99.90;;;;;;5027289;28;20041;-72
2023/09/12 02:00:03;;;;;;;38.03;13.95;;;18.00;99.90;;;;;;5020539;28;20033;-71
2023/09/12 02:02:29;;;;;;;34.05;14.02;;;18.00;99.90;;;;;;5046612;28;20116;-73
2023/09/12 02:05:02;;;;;;;31.88;14.48;;;18.00;99.90;;;;;;5044749;28;20132;-70
2023/09/12 02:07:32;;;;;;;35.17;15.93;;;18.00;99.90;;;;;;5046448;28;20485;-72
2023/09/12 02:09:58;;;;;;;33.90;14.07;;;17.90;99.90;;;;;;5044520;28;20148;-70
2023/09/12 02:12:24;;;;;;;31.50;13.48;;;17.90;99.90;;;;;;5046230;28;20120;-71
2023/09/12 02:14:49;;;;;;;30.67;13.82;;;17.90;99.90;;;;;;5026271;28;20036;-70
2023/09/12 02:17:15;;;;;;;41.30;14.90;;;17.80;99.90;;;;;;5046307;28;20040;-70
2023/09/12 02:19:40;;;;;;;38.35;15.25;;;17.80;99.90;;;;;;5044183;28;20029;-72
2023/09/12 02:22:06;;;;;;;41.08;15.25;;;17.80;99.90;;;;;;5045236;28;20125;-72
2023/09/12 02:24:34;;;;;;;34.33;14.85;;;17.80;99.90;;;;;;5045584;28;20071;-71
2023/09/12 02:27:00;;;;;;;43.10;16.75;;;17.80;99.90;;;;;;5033275;28;20061;-71
2023/09/12 02:29:25;;;;;;;39.00;16.83;;;17.80;99.90;;;;;;5041345;28;20505;-71
2023/09/12 02:31:51;;;;;;;51.22;17.70;;;17.80;99.90;;;;;;5036439;28;20121;-72
2023/09/12 02:34:16;;;;;;;41.97;16.80;;;17.80;99.90;;;;;;5045173;28;20029;-71
2023/09/12 02:36:42;;;;;;;57.08;19.17;;;17.80;99.90;;;;;;5042822;28;20064;-72
2023/09/12 02:39:08;;;;;;;47.63;18.67;;;17.80;99.90;;;;;;5019775;28;20049;-69
2023/09/12 02:41:33;;;;;;;47.05;18.70;;;17.80;99.90;;;;;;5015657;28;20037;-70
2023/09/12 02:43:59;;;;;;;48.80;19.15;;;17.80;99.90;;;;;;5033925;28;20045;-70
2023/09/12 02:46:24;;;;;;;52.85;18.55;;;17.80;99.90;;;;;;5028832;28;20046;-71
2023/09/12 02:48:50;;;;;;;68.35;21.33;;;17.80;99.90;;;;;;5040696;28;20064;-70
2023/09/12 02:51:15;;;;;;;57.05;20.48;;;17.80;99.90;;;;;;5011023;28;20424;-71
2023/09/12 02:53:41;;;;;;;50.58;20.10;;;17.90;99.90;;;;;;5028571;28;20026;-71
2023/09/12 02:56:06;;;;;;;53.92;19.48;;;17.90;99.90;;;;;;5020438;28;20033;-71
2023/09/12 02:58:32;;;;;;;63.30;20.35;;;17.90;99.90;;;;;;5043990;28;20073;-69
2023/09/12 03:00:57;;;;;;;55.03;18.65;;;17.80;99.90;;;;;;5026472;28;20059;-70
2023/09/12 03:03:23;;;;;;;57.38;20.40;;;17.80;99.90;;;;;;5025636;28;20400;-70
2023/09/12 03:06:01;;;;;;;56.63;20.10;;;17.80;99.90;;;;;;5035790;28;20397;-70
2023/09/12 03:08:27;;;;;;;56.20;20.52;;;17.80;99.90;;;;;;5014625;28;20042;-71
2023/09/12 03:10:56;;;;;;;71.10;20.00;;;17.80;99.90;;;;;;5026387;28;20052;-71
2023/09/12 03:13:25;;;;;;;57.90;20.43;;;17.90;99.90;;;;;;5047208;28;20538;-71
2023/09/12 03:15:51;;;;;;;63.85;19.52;;;17.80;99.90;;;;;;5026395;28;20037;-70
2023/09/12 03:18:16;;;;;;;58.40;17.50;;;17.90;99.90;;;;;;5046528;28;20611;-72
2023/09/12 03:20:42;;;;;;;78.70;20.15;;;17.90;99.90;;;;;;5043670;28;20087;-70
2023/09/12 03:23:07;;;;;;;61.58;18.33;;;17.90;99.90;;;;;;5046275;28;20516;-70
2023/09/12 03:25:37;;;;;;;53.35;19.77;;;17.90;99.90;;;;;;5047569;28;20033;-70
2023/09/12 03:28:07;;;;;;;47.22;17.20;;;17.90;99.90;;;;;;5023464;28;20061;-71
2023/09/12 03:30:34;;;;;;;44.40;16.02;;;17.80;99.90;;;;;;5028026;28;20033;-70
2023/09/12 03:33:00;;;;;;;46.53;16.73;;;17.90;99.90;;;;;;5025716;28;20038;-70
2023/09/12 03:35:25;;;;;;;45.50;17.35;;;17.90;99.90;;;;;;5047970;28;20091;-70
2023/09/12 03:37:51;;;;;;;38.33;15.20;;;17.80;99.90;;;;;;5041728;28;20021;-71
2023/09/12 03:40:16;;;;;;;34.63;14.35;;;17.80;99.90;;;;;;5047806;28;20036;-70
2023/09/12 03:42:42;;;;;;;44.22;15.75;;;17.80;99.90;;;;;;5044149;28;20056;-70
2023/09/12 03:45:08;;;;;;;43.80;17.35;;;17.90;99.90;;;;;;5034914;28;20028;-71
2023/09/12 03:47:34;;;;;;;42.03;16.75;;;17.80;99.90;;;;;;5046473;28;20036;-70
2023/09/12 03:49:59;;;;;;;48.85;18.30;;;17.80;99.90;;;;;;5024602;28;20041;-71
2023/09/12 03:52:25;;;;;;;44.15;16.83;;;17.90;99.90;;;;;;5044623;28;20086;-70
2023/09/12 03:54:50;;;;;;;48.17;17.58;;;17.90;99.90;;;;;;5025675;28;20094;-70
2023/09/12 03:57:16;;;;;;;41.65;16.92;;;17.90;99.90;;;;;;5045024;28;20041;-71
2023/09/12 03:59:42;;;;;;;44.30;17.50;;;17.90;99.90;;;;;;5043470;28;20040;-70
2023/09/12 04:02:08;;;;;;;51.95;18.83;;;17.90;99.90;;;;;;5043882;28;20032;-71
2023/09/12 04:04:34;;;;;;;47.67;18.20;;;17.90;99.90;;;;;;5025679;28;20041;-71
2023/09/12 04:06:59;;;;;;;56.28;19.98;;;18.00;99.90;;;;;;5029522;28;20359;-71
2023/09/12 04:09:25;;;;;;;48.08;18.33;;;18.00;99.90;;;;;;5044608;28;20043;-70
2023/09/12 04:11:50;;;;;;;60.90;19.90;;;18.00;99.90;;;;;;5038014;28;20457;-72
2023/09/12 04:14:16;;;;;;;55.40;19.13;;;18.00;99.90;;;;;;5029031;28;20036;-72
2023/09/12 04:16:42;;;;;;;45.97;17.27;;;18.00;99.90;;;;;;5040083;28;20051;-72
2023/09/12 04:19:07;;;;;;;47.83;17.77;;;18.00;99.90;;;;;;5042274;28;20029;-71
2023/09/12 04:21:33;;;;;;;60.25;20.00;;;18.00;99.90;;;;;;5042164;28;20048;-68
2023/09/12 04:23:58;;;;;;;49.65;19.00;;;18.00;99.90;;;;;;5039636;28;20151;-72
2023/09/12 04:26:24;;;;;;;47.22;18.65;;;18.00;99.90;;;;;;5028031;28;20044;-71
2023/09/12 04:28:50;;;;;;;50.28;18.30;;;18.00;99.90;;;;;;5020119;28;20555;-70
2023/09/12 04:31:15;;;;;;;44.22;16.70;;;18.00;99.90;;;;;;5040371;28;20401;-70
2023/09/12 04:33:41;;;;;;;45.17;17.13;;;18.10;99.90;;;;;;5039305;28;20055;-72
2023/09/12 04:36:06;;;;;;;51.60;18.58;;;18.10;99.90;;;;;;5036808;28;20033;-71
2023/09/12 04:38:37;;;;;;;48.85;18.40;;;18.10;99.90;;;;;;5018999;28;20037;-71
2023/09/12 04:41:04;;;;;;;45.08;17.73;;;18.10;99.90;;;;;;5032936;28;20068;-69
2023/09/12 04:43:33;;;;;;;43.40;17.15;;;18.10;99.90;;;;;;5022645;28;20025;-69
2023/09/12 04:45:59;;;;;;;54.65;19.15;;;18.10;99.90;;;;;;5039559;28;20087;-69
2023/09/12 04:48:25;;;;;;;52.38;18.85;;;18.10;99.90;;;;;;5035141;28;20041;-69
2023/09/12 04:50:50;;;;;;;44.85;16.63;;;18.10;99.90;;;;;;5035704;28;20403;-69
2023/09/12 04:53:16;;;;;;;55.40;19.42;;;18.10;99.90;;;;;;5023362;28;20044;-69
2023/09/12 04:55:42;;;;;;;44.17;16.77;;;18.20;99.90;;;;;;5021286;28;20099;-70
2023/09/12 04:58:07;;;;;;;50.10;17.58;;;18.20;99.90;;;;;;5026576;28;20070;-69
2023/09/12 05:00:33;;;;;;;38.85;16.23;;;18.20;99.90;;;;;;5035380;28;20037;-70
2023/09/12 05:03:01;;;;;;;48.13;17.08;;;18.20;99.90;;;;;;5020131;28;20041;-71
2023/09/12 05:05:26;;;;;;;43.50;17.30;;;18.20;99.90;;;;;;5022520;28;20079;-71
2023/09/12 05:07:52;;;;;;;53.97;17.75;;;18.10;99.90;;;;;;5028628;28;20409;-70
2023/09/12 05:10:18;;;;;;;45.65;16.95;;;18.10;99.90;;;;;;5040510;28;20041;-71
2023/09/12 05:12:44;;;;;;;39.90;16.13;;;18.10;99.90;;;;;;5036673;28;20123;-71
2023/09/12 05:15:10;;;;;;;48.47;18.23;;;18.10;99.90;;;;;;5038514;28;20037;-69
2023/09/12 05:17:36;;;;;;;41.08;16.42;;;18.10;99.90;;;;;;5037999;28;20044;-69
2023/09/12 05:20:03;;;;;;;46.00;16.25;;;18.10;99.90;;;;;;5035867;28;20048;-71
2023/09/12 05:22:29;;;;;;;42.08;16.23;;;18.10;99.90;;;;;;5022575;28;20519;-72
2023/09/12 05:24:54;;;;;;;44.20;15.52;;;18.10;99.90;;;;;;5025304;28;20045;-70
2023/09/12 05:27:20;;;;;;;38.65;14.68;;;18.10;99.90;;;;;;5041309;28;20036;-69
2023/09/12 05:29:45;;;;;;;31.85;13.85;;;18.10;99.90;;;;;;5035397;28;20042;-70
2023/09/12 05:32:11;;;;;;;39.90;15.20;;;18.10;99.90;;;;;;5035357;28;20033;-72
2023/09/12 05:34:36;;;;;;;36.60;15.13;;;18.20;99.90;;;;;;5038444;28;20595;-71
2023/09/12 05:37:03;;;;;;;42.13;14.48;;;18.20;99.90;;;;;;5036688;28;20036;-70
2023/09/12 05:39:28;;;;;;;39.78;14.98;;;18.10;99.90;;;;;;5043565;28;20087;-70
2023/09/12 05:41:54;;;;;;;41.45;14.70;;;18.10;99.90;;;;;;5028152;28;20489;-69
2023/09/12 05:44:19;;;;;;;36.08;13.68;;;18.10;99.90;;;;;;5047220;28;20485;-71
2023/09/12 05:46:48;;;;;;;30.60;12.65;;;18.20;99.90;;;;;;5028430;28;20558;-70
2023/09/12 05:49:14;;;;;;;41.63;15.48;;;18.20;99.90;;;;;;5046522;28;20113;-71
2023/09/12 05:51:40;;;;;;;35.20;12.60;;;18.10;99.90;;;;;;5039896;28;20045;-71
2023/09/12 05:54:07;;;;;;;34.05;13.00;;;18.20;99.90;;;;;;5044870;28;20037;-71
2023/09/12 05:56:33;;;;;;;38.17;13.73;;;18.20;99.90;;;;;;5046518;28;20087;-71
2023/09/12 05:58:59;;;;;;;31.40;12.98;;;18.20;99.90;;;;;;5041642;28;20040;-70
2023/09/12 06:01:25;;;;;;;33.70;13.50;;;18.30;99.90;;;;;;5023984;28;20516;-69
2023/09/12 06:03:50;;;;;;;36.42;13.57;;;18.30;99.90;;;;;;5024050;28;20402;-70
2023/09/12 06:06:16;;;;;;;31.58;12.65;;;18.30;99.90;;;;;;5046665;28;20079;-70
2023/09/12 06:08:41;;;;;;;34.05;13.30;;;18.40;99.90;;;;;;5038068;28;20213;-72
2023/09/12 06:11:07;;;;;;;33.38;12.38;;;18.40;99.90;;;;;;5044337;28;20032;-71
2023/09/12 06:13:35;;;;;;;32.75;12.75;;;18.40;99.90;;;;;;5038282;28;20037;-72
2023/09/12 06:16:01;;;;;;;34.30;12.23;;;18.40;99.90;;;;;;5044411;28;20039;-71
2023/09/12 06:18:29;;;;;;;32.22;12.10;;;18.50;99.90;;;;;;5045442;28;20407;-71
2023/09/12 06:20:55;;;;;;;35.25;13.60;;;18.50;99.90;;;;;;5043615;28;20227;-70
2023/09/12 06:23:20;;;;;;;33.55;12.68;;;18.50;99.90;;;;;;5038240;28;20141;-70
2023/09/12 06:25:46;;;;;;;33.80;12.70;;;18.60;99.90;;;;;;5044396;28;20032;-70
2023/09/12 06:28:12;;;;;;;30.45;12.35;;;18.60;99.90;;;;;;5042815;28;20029;-71
2023/09/12 06:30:37;;;;;;;39.17;12.77;;;18.70;99.90;;;;;;5043924;28;20045;-71
2023/09/12 06:33:03;;;;;;;40.97;14.32;;;18.70;99.90;;;;;;5042778;28;20032;-71
2023/09/12 06:35:29;;;;;;;29.80;12.02;;;18.80;99.90;;;;;;5045675;28;20120;-71
2023/09/12 06:37:56;;;;;;;34.88;13.02;;;18.80;99.90;;;;;;5024835;28;20107;-71
2023/09/12 06:40:21;;;;;;;39.85;14.02;;;18.80;99.90;;;;;;5023831;28;20115;-71
2023/09/12 06:42:47;;;;;;;33.15;12.73;;;18.80;99.90;;;;;;5043334;28;20071;-70
2023/09/12 06:45:12;;;;;;;31.83;12.93;;;18.80;99.90;;;;;;5025715;28;20029;-70
2023/09/12 06:47:38;;;;;;;33.22;12.70;;;18.70;99.90;;;;;;5047427;28;20044;-71
2023/09/12 06:50:04;;;;;;;32.08;13.07;;;18.70;99.90;;;;;;5046252;28;20507;-70
2023/09/12 06:52:29;;;;;;;32.67;13.55;;;18.70;99.90;;;;;;5024598;28;20676;-71
2023/09/12 06:54:55;;;;;;;36.55;12.20;;;18.60;99.90;;;;;;5027956;28;20041;-71
2023/09/12 06:57:20;;;;;;;29.38;11.88;;;18.60;99.90;;;;;;5032608;28;20048;-70
2023/09/12 06:59:49;;;;;;;34.45;12.98;;;18.60;99.90;;;;;;5045097;28;20037;-71
2023/09/12 07:02:14;;;;;;;32.22;12.00;;;18.60;99.90;;;;;;5034561;28;20033;-70
2023/09/12 07:04:40;;;;;;;35.90;14.02;;;18.60;99.90;;;;;;5043747;28;20393;-70
2023/09/12 07:07:05;;;;;;;38.63;13.82;;;18.70;99.90;;;;;;5026908;28;20041;-70
2023/09/12 07:09:31;;;;;;;32.92;13.77;;;18.70;99.90;;;;;;5042873;28;20091;-71
2023/09/12 07:11:56;;;;;;;35.42;14.27;;;18.80;99.90;;;;;;5044600;28;20052;-70
2023/09/12 07:14:23;;;;;;;35.20;13.18;;;18.80;99.90;;;;;;5041285;28;20036;-70
2023/09/12 07:16:49;;;;;;;37.28;14.25;;;18.90;99.90;;;;;;5044091;28;20067;-71
2023/09/12 07:19:15;;;;;;;39.33;13.13;;;18.90;99.90;;;;;;5039180;28;20057;-71
2023/09/12 07:21:41;;;;;;;36.28;12.98;;;19.00;99.90;;;;;;5035245;28;20416;-72
2023/09/12 07:24:07;;;;;;;38.00;14.48;;;19.10;99.90;;;;;;5027871;28;20140;-70
2023/09/12 07:26:32;;;;;;;37.40;15.52;;;19.30;99.90;;;;;;5024064;28;20107;-70
2023/09/12 07:29:01;;;;;;;32.92;13.15;;;19.40;99.90;;;;;;5020337;28;20060;-71
2023/09/12 07:31:27;;;;;;;31.58;13.35;;;19.40;99.90;;;;;;5024465;28;20048;-71
2023/09/12 07:33:52;;;;;;;35.67;14.13;;;19.40;99.90;;;;;;5040695;28;20444;-70
2023/09/12 07:36:18;;;;;;;37.45;13.02;;;19.40;99.90;;;;;;5027192;28;20654;-70
2023/09/12 07:38:45;;;;;;;27.48;12.07;;;19.50;99.90;;;;;;5042099;28;20129;-70
2023/09/12 07:41:10;;;;;;;32.55;13.20;;;19.60;99.90;;;;;;5020574;28;20131;-70
2023/09/12 07:43:36;;;;;;;32.53;13.45;;;19.70;99.90;;;;;;5026582;28;20056;-71
2023/09/12 07:46:02;;;;;;;34.28;13.70;;;19.90;99.90;;;;;;5042021;28;20037;-70
2023/09/12 07:48:27;;;;;;;35.05;13.18;;;20.00;99.90;;;;;;5023190;28;20090;-71
2023/09/12 07:50:53;;;;;;;37.05;14.82;;;20.10;99.90;;;;;;5025588;28;20025;-70
2023/09/12 07:53:19;;;;;;;43.53;15.48;;;20.20;99.90;;;;;;5044475;28;20060;-71
2023/09/12 07:55:45;;;;;;;38.42;14.95;;;20.30;99.90;;;;;;5036690;28;20036;-71
2023/09/12 07:58:21;;;;;;;40.13;14.45;;;20.50;99.90;;;;;;5040550;28;20025;-70
2023/09/12 08:00:47;;;;;;;41.00;14.95;;;20.60;99.90;;;;;;5037482;28;20067;-71
2023/09/12 08:03:13;;;;;;;47.22;14.43;;;20.60;99.90;;;;;;5042045;28;20033;-70
2023/09/12 08:05:38;;;;;;;41.67;15.13;;;20.60;99.90;;;;;;5038420;28;20036;-69
2023/09/12 08:08:04;;;;;;;38.38;14.98;;;20.60;99.90;;;;;;5030628;28;20512;-69
2023/09/12 08:10:30;;;;;;;34.30;13.93;;;20.70;99.90;;;;;;5026592;28;20124;-69
2023/09/12 08:12:56;;;;;;;45.50;15.43;;;20.70;99.90;;;;;;5038238;28;20046;-70
2023/09/12 08:15:21;;;;;;;43.10;15.85;;;20.70;99.90;;;;;;5027039;28;20099;-70
2023/09/12 08:17:51;;;;;;;39.72;15.15;;;20.70;99.90;;;;;;5039884;28;20037;-69
2023/09/12 08:20:17;;;;;;;50.85;17.90;;;20.70;99.90;;;;;;5028220;28;20033;-69
2023/09/12 08:22:43;;;;;;;42.38;15.80;;;20.70;99.90;;;;;;5023787;28;20041;-69
2023/09/12 08:25:09;;;;;;;42.35;17.17;;;20.70;99.90;;;;;;5023743;28;20029;-71
2023/09/12 08:27:35;;;;;;;41.58;15.70;;;20.70;99.90;;;;;;5043285;28;20029;-72
2023/09/12 08:30:01;;;;;;;35.03;15.75;;;20.70;99.90;;;;;;5022072;28;20500;-71
2023/09/12 08:32:27;;;;;;;43.38;16.25;;;20.80;99.90;;;;;;5029723;28;20044;-71
2023/09/12 08:34:53;;;;;;;38.80;14.85;;;20.80;99.90;;;;;;5021945;28;20079;-71
2023/09/12 08:37:18;;;;;;;37.30;14.40;;;20.80;99.90;;;;;;5040717;28;20044;-71
2023/09/12 08:39:45;;;;;;;41.70;15.65;;;20.80;99.90;;;;;;5033501;28;20057;-71
2023/09/12 08:42:15;;;;;;;46.75;17.55;;;20.80;99.90;;;;;;5013892;28;20037;-70
2023/09/12 08:44:42;;;;;;;47.33;17.23;;;20.80;99.90;;;;;;5013623;28;20041;-70
2023/09/12 08:47:09;;;;;;;34.83;14.73;;;20.80;99.90;;;;;;5019583;28;20186;-71
2023/09/12 08:49:37;;;;;;;41.63;14.75;;;20.90;99.90;;;;;;5021025;28;20041;-71
2023/09/12 08:52:03;;;;;;;37.13;15.52;;;20.90;99.90;;;;;;5017632;28;20041;-70
2023/09/12 08:54:29;;;;;;;38.50;15.13;;;20.90;99.90;;;;;;5038813;28;20145;-70
2023/09/12 08:56:56;;;;;;;33.55;13.68;;;20.90;99.90;;;;;;5037350;28;20124;-70
2023/09/12 08:59:21;;;;;;;36.28;15.68;;;20.90;99.90;;;;;;5026539;28;20138;-70
2023/09/12 09:01:50;;;;;;;37.65;15.15;;;21.00;99.90;;;;;;5033203;28;20624;-72
2023/09/12 09:04:18;;;;;;;38.42;15.48;;;21.10;99.90;;;;;;5018804;28;20439;-72
2023/09/12 09:06:45;;;;;;;36.67;14.48;;;21.20;99.90;;;;;;5036860;28;20026;-72
2023/09/12 09:09:12;;;;;;;34.92;15.68;;;21.30;99.90;;;;;;5034316;28;20052;-71
2023/09/12 09:11:38;;;;;;;39.17;14.15;;;21.30;99.90;;;;;;5037093;28;20033;-71
2023/09/12 09:14:03;;;;;;;39.25;16.63;;;21.40;99.90;;;;;;5034040;28;20035;-71
2023/09/12 09:16:30;;;;;;;37.88;14.27;;;21.40;99.90;;;;;;5034075;28;20030;-71
2023/09/12 09:19:00;;;;;;;38.20;14.10;;;21.40;99.90;;;;;;5039025;28;20025;-71
2023/09/12 09:21:27;;;;;;;;;;;21.50;99.90;;;;;;5038854;28;20036;-70
2023/09/12 09:23:54;;;;;;;30.35;12.38;;;21.50;99.90;;;;;;5036237;28;19951;-70
2023/09/12 09:26:20;;;;;;;31.15;13.02;;;21.60;99.90;;;;;;5030818;28;20033;-70
2023/09/12 09:29:00;;;;;;;32.65;13.68;;;21.70;99.90;;;;;;5028137;28;20038;-70
2023/09/12 09:31:25;;;;;;;25.33;11.30;;;21.70;99.90;;;;;;5022600;28;20049;-70
2023/09/12 09:33:52;;;;;;;29.95;12.65;;;21.70;99.90;;;;;;5027952;28;20033;-71
2023/09/12 09:36:17;;;;;;;28.00;12.93;;;21.70;99.90;;;;;;5046693;28;20025;-71
2023/09/12 09:38:43;;;;;;;32.97;14.48;;;21.70;99.90;;;;;;5045391;28;20047;-72
2023/09/12 09:41:09;;;;;;;30.73;13.20;;;21.70;99.90;;;;;;5029218;28;20116;-71
2023/09/12 09:43:35;;;;;;;29.50;14.20;;;21.80;99.90;;;;;;5030695;28;20033;-71
2023/09/12 09:46:01;;;;;;;26.83;12.13;;;21.90;99.90;;;;;;5045953;28;20569;-72
2023/09/12 09:48:32;;;;;;;28.58;13.23;;;22.00;99.90;;;;;;5030446;28;20517;-70
2023/09/12 09:51:03;;;;;;;27.92;12.75;;;22.10;99.90;;;;;;5013949;28;20416;-71
2023/09/12 09:53:34;;;;;;;;;;;22.20;99.90;;;;;;5028163;28;20105;-71
2023/09/12 09:56:07;;;;;;;29.40;12.35;;;22.30;99.90;;;;;;5022887;28;20388;-71
2023/09/12 09:58:33;;;;;;;27.88;11.95;;;22.50;99.90;;;;;;5039686;28;20036;-70
2023/09/12 10:01:00;;;;;;;29.35;13.00;;;22.60;99.90;;;;;;5021497;28;20021;-72
2023/09/12 10:03:28;;;;;;;30.08;13.95;;;22.80;99.90;;;;;;5046044;28;20052;-70
2023/09/12 10:05:56;;;;;;;31.48;13.98;;;22.90;99.90;;;;;;5039653;28;20076;-71
2023/09/12 10:08:24;;;;;;;27.02;13.32;;;23.00;99.90;;;;;;5044434;28;20073;-71
2023/09/12 10:10:51;;;;;;;26.83;12.15;;;23.00;99.90;;;;;;5040238;28;20037;-71
2023/09/12 10:13:20;;;;;;;27.05;12.02;;;23.00;99.90;;;;;;5033800;28;20551;-70
2023/09/12 10:15:48;;;;;;;27.27;11.70;;;23.20;99.90;;;;;;5034140;28;20117;-72
2023/09/12 10:18:19;;;;;;;23.05;11.60;;;23.20;99.90;;;;;;5037401;28;20032;-72
2023/09/12 10:20:57;;;;;;;24.15;13.13;;;23.10;99.90;;;;;;5039738;28;20132;-72
2023/09/12 10:23:43;;;;;;;23.73;11.73;;;23.10;99.90;;;;;;5033725;28;20126;-71
2023/09/12 10:26:12;;;;;;;25.10;11.40;;;23.20;99.90;;;;;;5041293;28;20029;-71
2023/09/12 10:28:40;;;;;;;23.83;10.65;;;23.10;99.90;;;;;;5027781;28;20748;-71
2023/09/12 10:31:08;;;;;;;19.27;10.43;;;23.20;99.90;;;;;;5044728;28;20041;-73
2023/09/12 10:33:34;;;;;;;21.90;11.00;;;23.20;99.90;;;;;;5027832;28;20022;-71
2023/09/12 10:36:03;;;;;;;23.15;11.27;;;23.30;99.90;;;;;;5042936;28;20392;-70
2023/09/12 10:38:32;;;;;;;21.45;10.15;;;23.20;99.90;;;;;;5042494;28;20037;-71
2023/09/12 10:41:00;;;;;;;19.17;10.82;;;23.20;99.90;;;;;;5024518;28;20512;-72
2023/09/12 10:43:28;;;;;;;27.55;11.55;;;23.20;99.90;;;;;;5020620;28;20033;-71
2023/09/12 10:45:53;;;;;;;18.15;10.50;;;23.20;99.90;;;;;;5038706;28;20399;-71
2023/09/12 10:48:19;;;;;;;24.98;9.70;;;23.20;99.90;;;;;;5045190;28;20504;-71
2023/09/12 10:50:45;;;;;;;25.02;11.55;;;23.30;99.90;;;;;;5024224;28;20086;-73
2023/09/12 10:53:12;;;;;;;18.88;9.48;;;23.40;99.90;;;;;;5042647;28;20087;-71
2023/09/12 10:55:38;;;;;;;23.50;10.50;;;23.40;99.90;;;;;;5027050;28;20033;-70
2023/09/12 10:58:05;;;;;;;20.52;10.25;;;23.40;99.90;;;;;;5040165;28;20163;-70
2023/09/12 11:00:32;;;;;;;20.05;10.38;;;23.50;99.90;;;;;;5036154;28;20488;-70
2023/09/12 11:03:02;;;;;;;18.98;10.27;;;23.50;99.90;;;;;;5034474;28;20041;-70
2023/09/12 11:05:28;;;;;;;;;;;23.50;99.90;;;;;;5023969;28;20161;-70
2023/09/12 11:08:01;;;;;;;16.83;9.27;;;23.60;99.90;;;;;;5041571;28;20027;-72
2023/09/12 11:10:28;;;;;;;18.85;9.88;;;23.70;99.90;;;;;;5034193;28;20629;-73
2023/09/12 11:12:56;;;;;;;22.65;11.75;;;23.80;99.90;;;;;;5020701;28;20060;-71
2023/09/12 11:15:27;;;;;;;20.15;10.05;;;23.80;99.90;;;;;;5022067;28;20115;-72
2023/09/12 11:18:06;;;;;;;17.92;10.15;;;23.80;99.90;;;;;;5038009;28;20029;-72
2023/09/12 11:21:03;;;;;;;15.75;8.75;;;23.80;99.90;;;;;;5038909;28;20065;-73
2023/09/12 11:23:28;;;;;;;16.73;9.07;;;23.80;99.90;;;;;;5043846;28;20033;-70
2023/09/12 11:26:05;;;;;;;21.38;10.15;;;23.70;99.90;;;;;;5040890;28;20033;-70
2023/09/12 11:28:31;;;;;;;22.65;11.07;;;23.80;99.90;;;;;;5022775;28;20025;-70
2023/09/12 11:30:57;;;;;;;16.08;7.90;;;23.80;99.90;;;;;;5022413;28;20045;-72
2023/09/12 11:33:25;;;;;;;22.35;9.95;;;23.60;99.90;;;;;;5041234;28;20032;-72
2023/09/12 11:35:54;;;;;;;23.10;10.35;;;23.70;99.90;;;;;;5026055;28;20492;-71
2023/09/12 11:38:28;;;;;;;16.33;9.50;;;23.70;99.90;;;;;;5040254;28;20114;-71
2023/09/12 11:40:54;;;;;;;18.02;8.50;;;23.70;99.90;;;;;;5014424;28;20681;-70
2023/09/12 11:43:23;;;;;;;19.48;9.98;;;23.70;99.90;;;;;;5028652;28;20033;-72
2023/09/12 11:45:49;;;;;;;20.50;9.68;;;23.90;99.90;;;;;;5046328;28;20116;-72
2023/09/12 11:48:15;;;;;;;15.75;8.68;;;24.00;99.90;;;;;;5024777;28;20438;-71
2023/09/12 11:50:41;;;;;;;17.75;9.00;;;24.00;99.90;;;;;;5039677;28;20043;-71
2023/09/12 11:53:11;;;;;;;18.80;9.30;;;24.00;99.90;;;;;;5024841;28;20127;-73
2023/09/12 11:55:45;;;;;;;17.92;9.75;;;24.00;99.90;;;;;;5042798;28;20049;-71
2023/09/12 11:58:11;;;;;;;20.40;10.40;;;24.00;99.90;;;;;;5024304;28;20033;-71
2023/09/12 12:00:37;;;;;;;19.80;9.32;;;23.90;99.90;;;;;;5039745;28;20064;-70
2023/09/12 12:03:04;;;;;;;17.90;9.57;;;23.80;99.90;;;;;;5021333;28;20071;-71
2023/09/12 12:05:30;;;;;;;15.52;9.65;;;23.80;99.90;;;;;;5028718;28;20408;-70
2023/09/12 12:07:58;;;;;;;18.88;9.80;;;23.80;99.90;;;;;;5017902;28;20029;-72
2023/09/12 12:10:24;;;;;;;20.08;9.98;;;23.80;99.90;;;;;;5045673;28;20048;-72
2023/09/12 12:12:53;;;;;;;16.02;8.95;;;23.90;99.90;;;;;;5021589;28;20528;-72
2023/09/12 12:15:19;;;;;;;19.40;10.15;;;24.00;99.90;;;;;;5028354;28;20056;-72
2023/09/12 12:17:45;;;;;;;16.40;8.52;;;24.10;99.90;;;;;;5023229;28;20033;-70
2023/09/12 12:20:11;;;;;;;15.95;8.55;;;24.10;99.90;;;;;;5023703;28;20107;-71
2023/09/12 12:22:40;;;;;;;17.27;9.10;;;24.00;99.90;;;;;;5030609;28;20044;-71
2023/09/12 12:25:10;;;;;;;16.25;8.80;;;24.10;99.90;;;;;;5043798;28;20033;-72
2023/09/12 12:27:39;;;;;;;17.60;9.02;;;24.20;99.90;;;;;;5035371;28;20045;-71